Weather at Telupid Airport

Public forecast

Using degrees Celsius for public forecast. Weather courtesy of forecast.io.

Closest aviation weather report (METAR) to Telupid Airport

Closest report is Sandakan Airport, 58.1 nm (107.6 km) ENE.

2024/05/27 21:00 (retrieved 38 minutes ago)

WBKS 272100Z 22003KT 170V260 9999 FEW016 26/25 Q1008

Closest aviation forecast (TAF) to Telupid Airport

Closest forecast is Sandakan Airport, 58.1 nm (107.6 km) ENE.

2024/05/27 18:00 (retrieved 4 hours ago)

TAF WBKS 271700Z 2718/2818 24005KT 9999 FEW016 TEMPO 2805/2809 5000 TSRA FEW012 FEW017CB